createdAt,value
2023-04-13T00:02:24.614Z,10.05
2023-04-13T00:07:28.344Z,10.06
2023-04-13T00:12:30.646Z,9.98
2023-04-13T00:17:33.590Z,9.92
2023-04-13T00:22:36.985Z,9.90
2023-04-13T00:27:42.371Z,9.86
2023-04-13T00:32:45.228Z,9.79
2023-04-13T00:37:49.940Z,9.73
2023-04-13T00:42:51.860Z,9.74
2023-04-13T00:47:54.105Z,9.76
2023-04-13T00:52:55.982Z,9.81
2023-04-13T00:57:59.412Z,9.79
2023-04-13T01:03:01.937Z,9.74
2023-04-13T01:08:36.789Z,9.70
2023-04-13T01:13:55.934Z,9.67
2023-04-13T01:18:58.337Z,9.65
2023-04-13T01:24:03.057Z,9.60
2023-04-13T01:29:06.497Z,9.57
2023-04-13T01:34:09.082Z,9.56
2023-04-13T01:39:18.779Z,9.60
2023-04-13T01:44:21.123Z,9.64
2023-04-13T01:49:24.298Z,9.68
2023-04-13T01:54:56.499Z,9.70
2023-04-13T01:59:58.873Z,9.74
2023-04-13T02:05:00.542Z,9.73
2023-04-13T02:10:06.052Z,9.74
2023-04-13T02:15:08.328Z,9.59
2023-04-13T02:20:11.313Z,9.60
2023-04-13T02:25:13.033Z,9.65
2023-04-13T02:30:14.646Z,9.66
2023-04-13T02:35:17.252Z,9.56
2023-04-13T02:40:19.545Z,9.55
2023-04-13T02:45:21.337Z,9.38
2023-04-13T02:50:24.176Z,9.36
2023-04-13T02:55:36.539Z,9.35
2023-04-13T03:00:42.294Z,9.41
2023-04-13T03:05:50.329Z,9.56
2023-04-13T03:10:55.770Z,9.58
2023-04-13T03:16:00.493Z,9.60
2023-04-13T03:21:02.661Z,9.62
2023-04-13T03:26:12.257Z,9.43
2023-04-13T03:31:15.182Z,9.40
2023-04-13T03:36:17.530Z,9.23
2023-04-13T03:41:19.722Z,9.31
2023-04-13T03:46:22.673Z,9.41
2023-04-13T03:51:24.529Z,9.41
2023-04-13T03:56:27.811Z,9.49
2023-04-13T04:01:30.736Z,9.51
2023-04-13T04:06:32.500Z,9.54
2023-04-13T04:11:43.599Z,9.58
2023-04-13T04:16:47.045Z,9.60
2023-04-13T04:21:52.921Z,9.57
2023-04-13T04:26:58.013Z,9.58
2023-04-13T04:32:05.499Z,9.57
2023-04-13T04:37:19.731Z,9.63
2023-04-13T04:42:34.075Z,9.43
2023-04-13T04:47:42.102Z,9.35
2023-04-13T04:52:50.336Z,9.30
2023-04-13T04:57:56.492Z,9.44
2023-04-13T05:03:00.991Z,9.53
2023-04-13T05:08:03.176Z,9.53
2023-04-13T05:13:05.302Z,9.52
2023-04-13T05:18:07.090Z,9.56
2023-04-13T05:23:09.750Z,9.63
2023-04-13T05:28:18.156Z,9.66
2023-04-13T05:33:21.663Z,9.68
2023-04-13T05:38:28.965Z,9.71
2023-04-13T05:43:31.608Z,9.74
2023-04-13T05:48:34.847Z,9.76
2023-04-13T05:53:39.901Z,9.79
2023-04-13T05:58:41.671Z,9.81
2023-04-13T06:03:56.431Z,9.84
2023-04-13T06:08:59.123Z,9.87
2023-04-13T06:14:02.573Z,9.97
2023-04-13T06:19:05.034Z,9.91
2023-04-13T06:24:09.726Z,9.95
2023-04-13T06:29:12.981Z,10.08
2023-04-13T06:34:21.848Z,10.12
2023-04-13T06:39:23.593Z,10.16
2023-04-13T06:44:32.568Z,10.23
2023-04-13T06:49:34.559Z,10.30
2023-04-13T06:54:37.752Z,10.29
2023-04-13T06:59:47.954Z,10.29
2023-04-13T07:04:49.966Z,10.29
2023-04-13T07:09:54.072Z,10.31
2023-04-13T07:14:55.887Z,10.32
2023-04-13T07:19:58.950Z,10.27
2023-04-13T07:25:01.400Z,10.25
2023-04-13T07:30:03.871Z,10.23
2023-04-13T07:35:12.318Z,10.30
2023-04-13T07:40:17.029Z,10.42
2023-04-13T07:45:22.923Z,10.43
2023-04-13T07:50:25.879Z,10.51
2023-04-13T07:55:27.989Z,10.33
2023-04-13T08:00:31.331Z,10.38
2023-04-13T08:05:36.799Z,10.46
2023-04-13T08:10:38.594Z,10.56
2023-04-13T08:15:42.554Z,10.43
2023-04-13T08:20:44.255Z,10.61
2023-04-13T08:25:47.188Z,10.51
2023-04-13T08:30:50.876Z,10.50
2023-04-13T08:35:53.763Z,10.45
2023-04-13T08:40:56.343Z,10.42
2023-04-13T08:46:07.798Z,10.52
2023-04-13T08:51:10.577Z,10.45
2023-04-13T08:56:14.870Z,10.46
2023-04-13T09:01:17.354Z,10.56
2023-04-13T09:06:25.982Z,10.84
2023-04-13T09:11:28.632Z,11.06
2023-04-13T09:16:42.200Z,11.25
2023-04-13T09:21:50.778Z,11.67
2023-04-13T09:26:52.934Z,11.69
2023-04-13T09:31:54.828Z,11.60
2023-04-13T09:36:58.627Z,11.52
2023-04-13T09:42:10.336Z,11.64
2023-04-13T09:47:12.936Z,11.51
2023-04-13T09:52:24.501Z,11.63
2023-04-13T09:57:31.860Z,12.06
2023-04-13T10:02:34.135Z,12.02
2023-04-13T10:07:38.141Z,12.18
2023-04-13T10:12:46.263Z,12.35
2023-04-13T10:18:03.838Z,12.60
2023-04-13T10:23:06.520Z,12.18
2023-04-13T10:28:08.153Z,12.27
2023-04-13T10:33:11.636Z,11.99
2023-04-13T10:38:15.204Z,11.93
2023-04-13T10:43:26.860Z,12.06
2023-04-13T10:48:28.484Z,12.41
2023-04-13T10:53:35.058Z,12.69
2023-04-13T10:58:37.024Z,13.02
2023-04-13T11:03:41.477Z,13.20
2023-04-13T11:08:48.422Z,13.07
2023-04-13T11:13:50.579Z,12.67
2023-04-13T11:19:02.848Z,12.59
2023-04-13T11:24:04.791Z,12.36
2023-04-13T11:29:17.082Z,11.82
2023-04-13T11:34:26.485Z,11.64
2023-04-13T11:39:29.000Z,11.34
2023-04-13T11:44:30.929Z,11.30
2023-04-13T11:49:33.148Z,11.43
2023-04-13T11:54:35.167Z,11.08
2023-04-13T11:59:38.684Z,11.18
2023-04-13T12:04:45.959Z,11.38
2023-04-13T12:15:12.369Z,11.17
2023-04-13T12:20:20.544Z,11.06
2023-04-13T12:25:24.366Z,11.07
2023-04-13T12:30:27.582Z,10.97
2023-04-13T12:35:29.210Z,11.20
2023-04-13T12:40:31.105Z,11.19
2023-04-13T12:45:32.885Z,11.42
2023-04-13T12:50:34.718Z,11.38
2023-04-13T12:55:36.570Z,11.49
2023-04-13T13:00:38.242Z,11.62
2023-04-13T13:05:40.176Z,11.65
2023-04-13T13:10:42.406Z,11.59
2023-04-13T13:15:44.109Z,11.66
2023-04-13T13:20:45.996Z,11.60
2023-04-13T13:26:04.441Z,11.16
2023-04-13T13:31:10.841Z,10.69
2023-04-13T13:36:14.058Z,10.54
2023-04-13T13:41:16.364Z,10.52
2023-04-13T13:46:18.320Z,10.73
2023-04-13T13:51:20.843Z,10.76
2023-04-13T13:56:23.286Z,10.73
2023-04-13T14:01:25.221Z,10.85
2023-04-13T14:06:27.839Z,10.71
2023-04-13T14:11:29.814Z,10.57
2023-04-13T14:16:31.754Z,10.35
2023-04-13T14:21:33.510Z,10.38
2023-04-13T14:26:38.384Z,10.45
2023-04-13T14:31:40.134Z,10.44
2023-04-13T14:36:42.556Z,10.60
2023-04-13T14:41:45.446Z,10.54
2023-04-13T14:46:47.076Z,10.49
2023-04-13T14:51:48.897Z,10.63
2023-04-13T14:56:50.628Z,10.83
2023-04-13T15:01:52.371Z,10.82
2023-04-13T15:06:54.476Z,11.06
2023-04-13T15:11:56.230Z,10.92
2023-04-13T15:16:58.154Z,10.74
2023-04-13T15:22:00.194Z,10.80
2023-04-13T15:27:01.901Z,10.80
2023-04-13T15:32:03.666Z,10.58
2023-04-13T15:37:05.501Z,10.56
2023-04-13T15:42:07.097Z,10.59
2023-04-13T15:47:08.938Z,10.29
2023-04-13T15:52:10.773Z,10.28
2023-04-13T15:57:12.511Z,10.10
2023-04-13T16:02:14.521Z,10.17
2023-04-13T16:07:16.996Z,9.99
2023-04-13T16:12:18.972Z,9.78
2023-04-13T16:17:30.893Z,9.85
2023-04-13T16:22:35.648Z,9.96
2023-04-13T16:27:38.484Z,9.89
2023-04-13T16:32:46.539Z,9.94
2023-04-13T16:37:48.472Z,9.93
2023-04-13T16:42:50.169Z,9.94
2023-04-13T16:47:55.415Z,9.94
2023-04-13T16:52:57.172Z,9.93
2023-04-13T16:57:58.959Z,10.01
2023-04-13T17:03:00.758Z,10.03
2023-04-13T17:08:04.256Z,9.89
2023-04-13T17:13:05.951Z,9.72
2023-04-13T17:18:07.847Z,9.73
2023-04-13T17:23:09.508Z,9.72
2023-04-13T17:28:11.114Z,9.65
2023-04-13T17:33:12.768Z,9.65
2023-04-13T17:38:14.526Z,9.64
2023-04-13T17:43:16.682Z,9.58
2023-04-13T17:48:18.274Z,9.61
2023-04-13T17:53:20.080Z,9.65
2023-04-13T17:58:21.772Z,9.67
2023-04-13T18:03:23.694Z,9.54
2023-04-13T18:08:25.516Z,9.62
2023-04-13T18:13:27.509Z,9.60
2023-04-13T18:18:29.212Z,9.52
2023-04-13T18:23:31.341Z,9.56
2023-04-13T18:28:36.905Z,9.55
2023-04-13T18:33:38.864Z,9.56
2023-04-13T18:38:40.540Z,9.52
2023-04-13T18:43:42.252Z,9.52
2023-04-13T18:48:44.235Z,9.44
2023-04-13T18:53:46.023Z,9.44
2023-04-13T18:58:49.591Z,9.38
2023-04-13T19:03:52.900Z,9.35
2023-04-13T19:08:54.768Z,9.32
2023-04-13T19:13:56.942Z,9.24
2023-04-13T19:18:58.558Z,9.21
2023-04-13T19:24:00.370Z,9.04
2023-04-13T19:29:04.023Z,9.12
2023-04-13T19:34:07.584Z,9.07
2023-04-13T19:39:10.048Z,9.02
2023-04-13T19:44:14.020Z,9.07
2023-04-13T19:49:15.718Z,9.07
2023-04-13T19:54:17.340Z,8.97
2023-04-13T19:59:18.962Z,8.95
2023-04-13T20:04:20.650Z,8.94
2023-04-13T20:09:22.962Z,8.91
2023-04-13T20:14:24.646Z,8.88
2023-04-13T20:19:26.559Z,8.85
2023-04-13T20:24:28.190Z,8.86
2023-04-13T20:29:29.804Z,8.86
2023-04-13T20:34:31.471Z,8.81
2023-04-13T20:39:33.159Z,8.75
2023-04-13T20:44:38.389Z,8.67
2023-04-13T20:49:47.078Z,8.62
2023-04-13T20:54:48.788Z,8.65
2023-04-13T20:59:52.053Z,8.68
2023-04-13T21:04:53.999Z,8.54
2023-04-13T21:09:55.931Z,8.58
2023-04-13T21:14:57.736Z,8.56
2023-04-13T21:20:00.468Z,8.51
2023-04-13T21:25:04.033Z,8.43
2023-04-13T21:30:06.260Z,8.42
2023-04-13T21:35:08.590Z,8.40
2023-04-13T21:40:10.702Z,8.45
2023-04-13T21:45:12.571Z,8.41
2023-04-13T21:50:14.244Z,8.31
2023-04-13T21:55:19.334Z,8.22
2023-04-13T22:00:20.988Z,8.23
2023-04-13T22:05:22.549Z,8.22
2023-04-13T22:10:24.264Z,8.18
2023-04-13T22:15:26.000Z,8.18
2023-04-13T22:20:27.642Z,8.00
2023-04-13T22:25:29.287Z,7.99
2023-04-13T22:30:31.073Z,7.89
2023-04-13T22:35:34.526Z,7.89
2023-04-13T22:40:39.395Z,7.81
2023-04-13T22:45:41.226Z,7.71
2023-04-13T22:50:42.826Z,7.65
2023-04-13T22:55:44.435Z,7.73
2023-04-13T23:00:46.216Z,7.77
2023-04-13T23:05:48.096Z,7.85
2023-04-13T23:10:49.754Z,7.91
2023-04-13T23:15:59.108Z,7.92
2023-04-13T23:21:09.729Z,7.80
2023-04-13T23:26:11.388Z,7.86
2023-04-13T23:31:13.475Z,7.85
2023-04-13T23:36:16.143Z,7.79
2023-04-13T23:41:17.821Z,7.69
2023-04-13T23:46:20.129Z,7.66
2023-04-13T23:51:22.408Z,7.66
2023-04-13T23:56:24.204Z,7.66
